Dades meteomassalio
Diari Summary for Agost 1, 2017 Units:  Metric    English   Both
« Previous Day
Next Day »
Diari Semanal Mensual Anual Personalitzat
  Maxima: Minima: Mijana:
Temperatura: 32.8 °C 20.4 °C 25.9 °C
Rosada: 21.2 °C 15.6 °C 17.1 °C
Humitat: 74 % 37 % 59 %
Velocitat del vent: 27.8 km/h 0.0 km/h 5.6 km/h
Racha vent: 27.8 km/h - -
Vent:- - South
Pressio: 1015.5 hPa 1007.0 hPa -
Pluja: 0.0 mm    
Historical Graphs
 
 
Tabular Data for Agost 1, 2017
Time Temperature Dew Point Pressure Wind Wind Speed Wind Gust Humidity Rainfall Rate (Hourly) solar Conditions
00:04 27.0 °C 16.0 °C 1007.0 hPa Calm     51 % 0.0 mm 0.0 W/m2 CLR
00:09 26.8 °C 16.2 °C 1007.0 hPa Calm     52 % 0.0 mm 0.0 W/m2 CLR
00:14 26.7 °C 16.1 °C 1007.0 hPa Calm     52 % 0.0 mm 0.0 W/m2 CLR
00:20 26.6 °C 15.9 °C 1007.0 hPa Calm     52 % 0.0 mm 0.0 W/m2 CLR
00:25 26.4 °C 16.1 °C 1007.0 hPa Calm     53 % 0.0 mm 0.0 W/m2 CLR
00:30 26.6 °C 16.2 °C 1007.0 hPa ENE 5.6 km/h   53 % 0.0 mm 0.0 W/m2 CLR
00:35 26.7 °C 16.3 °C 1007.0 hPa Calm     53 % 0.0 mm 0.0 W/m2 CLR
00:40 26.7 °C 16.3 °C 1007.3 hPa Calm     53 % 0.0 mm 0.0 W/m2 CLR
00:45 26.6 °C 16.8 °C 1007.3 hPa Calm     55 % 0.0 mm 0.0 W/m2 CLR
00:50 26.3 °C 17.1 °C 1007.3 hPa Calm     57 % 0.0 mm 0.0 W/m2 CLR
00:55 26.0 °C 17.1 °C 1007.3 hPa North 5.6 km/h 5.6 km/h 58 % 0.0 mm 0.0 W/m2 CLR
01:00 25.7 °C 17.6 °C 1007.7 hPa NNW 13.0 km/h 13.0 km/h 61 % 0.0 mm 0.0 W/m2 CLR
01:05 25.4 °C 17.1 °C 1008.0 hPa NNW 16.7 km/h 16.7 km/h 60 % 0.0 mm 0.0 W/m2 CLR
01:10 25.3 °C 17.5 °C 1008.0 hPa Calm     62 % 0.0 mm 0.0 W/m2 CLR
01:15 25.3 °C 18.2 °C 1008.0 hPa NNW 9.3 km/h 10.1 km/h 65 % 0.0 mm 0.0 W/m2 CLR
01:20 25.1 °C 18.1 °C 1008.4 hPa NW 11.1 km/h 11.1 km/h 65 % 0.0 mm 0.0 W/m2 CLR
01:25 25.1 °C 18.0 °C 1007.7 hPa Calm     65 % 0.0 mm 0.0 W/m2 CLR
01:30 25.1 °C 18.3 °C 1007.7 hPa Calm     66 % 0.0 mm 0.0 W/m2 CLR
01:35 24.9 °C 18.1 °C 1008.0 hPa NNE 11.1 km/h 11.1 km/h 66 % 0.0 mm 0.0 W/m2 CLR
01:40 24.7 °C 18.7 °C 1008.0 hPa NE 14.8 km/h 14.8 km/h 69 % 0.0 mm 0.0 W/m2 CLR
01:45 24.6 °C 19.0 °C 1008.4 hPa Calm     71 % 0.0 mm 0.0 W/m2 CLR
01:50 24.6 °C 19.2 °C 1008.4 hPa Calm     72 % 0.0 mm 0.0 W/m2 CLR
01:55 24.5 °C 19.1 °C 1008.4 hPa Calm     72 % 0.0 mm 0.0 W/m2 CLR
02:00 24.4 °C 19.0 °C 1008.4 hPa WSW 5.6 km/h 5.6 km/h 72 % 0.0 mm 0.0 W/m2 CLR
02:04 24.5 °C 18.9 °C 1008.4 hPa NW 7.4 km/h 7.4 km/h 71 % 0.0 mm 0.0 W/m2 CLR
02:05 24.5 °C 18.9 °C 1008.4 hPa WNW 5.6 km/h 5.6 km/h 71 % 0.0 mm 0.0 W/m2 CLR
02:10 24.9 °C 19.1 °C 1008.7 hPa West 11.1 km/h 11.1 km/h 70 % 0.0 mm 0.0 W/m2 CLR
02:15 25.4 °C 19.1 °C 1009.0 hPa Calm     68 % 0.0 mm 0.0 W/m2 CLR
02:20 25.6 °C 19.2 °C 1009.0 hPa WNW 5.6 km/h 5.6 km/h 68 % 0.0 mm 0.0 W/m2 CLR
02:25 25.4 °C 19.3 °C 1009.0 hPa West 11.1 km/h 11.1 km/h 69 % 0.0 mm 0.0 W/m2 CLR
02:30 25.4 °C 19.7 °C 1009.4 hPa West 18.5 km/h 18.5 km/h 71 % 0.0 mm 0.0 W/m2 CLR
02:35 25.3 °C 19.7 °C 1009.0 hPa West 9.3 km/h 9.3 km/h 71 % 0.0 mm 0.0 W/m2 CLR
02:40 25.1 °C 19.7 °C 1009.4 hPa WNW 11.3 km/h 11.3 km/h 72 % 0.0 mm 0.0 W/m2 CLR
02:45 24.9 °C 19.8 °C 1009.4 hPa Calm     73 % 0.0 mm 0.0 W/m2 CLR
02:50 24.8 °C 19.7 °C 1009.4 hPa West 5.6 km/h 5.6 km/h 73 % 0.0 mm 0.0 W/m2 CLR
02:55 24.6 °C 18.8 °C 1009.4 hPa WSW 14.5 km/h 14.5 km/h 70 % 0.0 mm 0.0 W/m2 CLR
03:00 24.5 °C 18.4 °C 1009.4 hPa West 13.0 km/h 13.0 km/h 69 % 0.0 mm 0.0 W/m2 CLR
03:05 24.4 °C 18.1 °C 1009.4 hPa Calm     68 % 0.0 mm 0.0 W/m2 CLR
03:10 24.2 °C 17.7 °C 1009.7 hPa Calm     67 % 0.0 mm 0.0 W/m2 CLR
03:15 24.1 °C 17.3 °C 1009.7 hPa Calm     66 % 0.0 mm 0.0 W/m2 CLR
03:20 23.9 °C 17.2 °C 1009.7 hPa WNW 11.1 km/h 11.1 km/h 66 % 0.0 mm 0.0 W/m2 CLR
03:25 23.8 °C 17.1 °C 1009.7 hPa WNW 11.3 km/h 11.3 km/h 66 % 0.0 mm 0.0 W/m2 CLR
03:30 23.6 °C 16.9 °C 1009.7 hPa Calm     66 % 0.0 mm 0.0 W/m2 CLR
03:35 23.5 °C 16.8 °C 1009.4 hPa Calm     66 % 0.0 mm 0.0 W/m2 CLR
03:40 23.3 °C 16.8 °C 1009.4 hPa Calm     67 % 0.0 mm 0.0 W/m2 CLR
03:45 23.2 °C 16.8 °C 1009.4 hPa Calm     67 % 0.0 mm 0.0 W/m2 CLR
03:50 23.1 °C 16.7 °C 1009.4 hPa Calm     67 % 0.0 mm 0.0 W/m2 CLR
03:55 22.9 °C 16.7 °C 1009.4 hPa Calm     68 % 0.0 mm 0.0 W/m2 CLR
04:00 22.8 °C 16.6 °C 1009.4 hPa Calm     68 % 0.0 mm 0.0 W/m2 CLR
04:05 22.7 °C 16.5 °C 1009.0 hPa Calm     68 % 0.0 mm 0.0 W/m2 CLR
04:10 22.6 °C 16.4 °C 1009.4 hPa Calm     68 % 0.0 mm 0.0 W/m2 CLR
04:15 22.6 °C 16.3 °C 1009.4 hPa Calm     68 % 0.0 mm 0.0 W/m2 CLR
04:20 22.4 °C 16.2 °C 1009.4 hPa Calm     68 % 0.0 mm 0.0 W/m2 CLR
04:25 22.4 °C 16.2 °C 1009.4 hPa Calm     68 % 0.0 mm 0.0 W/m2 CLR
04:30 22.4 °C 16.2 °C 1009.4 hPa Calm     68 % 0.0 mm 0.0 W/m2 CLR
04:35 22.3 °C 16.1 °C 1009.4 hPa Calm     68 % 0.0 mm 0.0 W/m2 CLR
04:40 22.3 °C 16.1 °C 1009.4 hPa Calm     68 % 0.0 mm 0.0 W/m2 CLR
04:45 22.2 °C 16.0 °C 1009.4 hPa Calm     68 % 0.0 mm 0.0 W/m2 CLR
04:50 22.1 °C 15.9 °C 1009.7 hPa Calm     68 % 0.0 mm 0.0 W/m2 CLR
04:55 22.1 °C 15.9 °C 1009.7 hPa Calm     68 % 0.0 mm 0.0 W/m2 CLR
05:00 22.0 °C 16.1 °C 1009.7 hPa Calm     69 % 0.0 mm 0.0 W/m2 CLR
05:05 21.9 °C 15.9 °C 1009.7 hPa Calm     69 % 0.0 mm 0.0 W/m2 CLR
05:10 21.8 °C 15.9 °C 1009.7 hPa Calm     69 % 0.0 mm 0.0 W/m2 CLR
05:15 21.8 °C 16.1 °C 1010.0 hPa Calm     70 % 0.0 mm 0.0 W/m2 CLR
05:20 21.7 °C 15.9 °C 1010.0 hPa Calm     70 % 0.0 mm 0.0 W/m2 CLR
05:25 21.6 °C 15.8 °C 1010.0 hPa Calm     70 % 0.0 mm 0.0 W/m2 CLR
05:30 21.6 °C 15.8 °C 1010.0 hPa Calm     70 % 0.0 mm 0.0 W/m2 CLR
05:35 21.4 °C 15.7 °C 1010.0 hPa Calm     70 % 0.0 mm 0.0 W/m2 CLR
05:36 21.4 °C 15.9 °C 1010.0 hPa Calm     71 % 0.0 mm 0.0 W/m2 CLR
05:41 21.4 °C 15.9 °C 1010.0 hPa Calm     71 % 0.0 mm 0.0 W/m2 CLR
05:46 21.4 °C 15.9 °C 1010.0 hPa Calm     71 % 0.0 mm 0.0 W/m2 CLR
05:51 21.3 °C 15.8 °C 1010.0 hPa Calm     71 % 0.0 mm 0.0 W/m2 CLR
05:56 21.2 °C 15.7 °C 1010.0 hPa Calm     71 % 0.0 mm 0.0 W/m2 CLR
06:01 21.1 °C 15.7 °C 1010.4 hPa Calm     71 % 0.0 mm 0.0 W/m2 CLR
06:06 21.0 °C 15.8 °C 1010.4 hPa Calm     72 % 0.0 mm 0.0 W/m2 CLR
06:11 20.9 °C 15.7 °C 1010.4 hPa Calm     72 % 0.0 mm 0.0 W/m2 CLR
06:16 20.9 °C 15.7 °C 1010.4 hPa Calm     72 % 0.0 mm 0.0 W/m2 CLR
06:21 20.9 °C 15.7 °C 1010.4 hPa Calm     72 % 0.0 mm 0.0 W/m2 CLR
06:26 20.8 °C 15.6 °C 1010.4 hPa Calm     72 % 0.0 mm 0.0 W/m2 CLR
06:31 20.6 °C 15.6 °C 1010.7 hPa Calm     73 % 0.0 mm 0.0 W/m2 CLR
06:36 20.6 °C 15.8 °C 1010.7 hPa Calm     74 % 0.0 mm 0.0 W/m2 CLR
06:41 20.5 °C 15.7 °C 1010.7 hPa Calm     74 % 0.0 mm 0.0 W/m2 CLR
06:46 20.5 °C 15.7 °C 1010.7 hPa Calm     74 % 0.0 mm 0.0 W/m2 OVC
06:51 20.6 °C 15.8 °C 1010.7 hPa Calm     74 % 0.0 mm 0.0 W/m2 OVC
06:56 20.6 °C 15.8 °C 1010.7 hPa West 5.6 km/h 5.6 km/h 74 % 0.0 mm 0.0 W/m2 OVC
07:02 20.7 °C 15.7 °C 1010.7 hPa Calm     73 % 0.0 mm 5.0 W/m2 OVC
07:07 20.7 °C 15.7 °C 1010.7 hPa Calm     73 % 0.0 mm 7.0 W/m2 BKN
07:12 20.7 °C 15.7 °C 1010.7 hPa Calm     73 % 0.0 mm 12.0 W/m2 BKN
07:17 20.7 °C 15.7 °C 1010.7 hPa Calm     73 % 0.0 mm 18.0 W/m2 BKN
07:22 20.6 °C 15.8 °C 1010.7 hPa Calm     74 % 0.0 mm 23.0 W/m2 BKN
07:27 20.6 °C 15.8 °C 1010.7 hPa Calm     74 % 0.0 mm 25.0 W/m2 BKN
07:32 20.6 °C 15.8 °C 1011.1 hPa Calm     74 % 0.0 mm 26.0 W/m2 BKN
07:37 20.6 °C 15.8 °C 1011.1 hPa Calm     74 % 0.0 mm 32.0 W/m2 BKN
07:42 20.6 °C 15.8 °C 1011.1 hPa Calm     74 % 0.0 mm 37.0 W/m2 BKN
07:47 20.6 °C 15.8 °C 1011.1 hPa Calm     74 % 0.0 mm 47.0 W/m2 BKN
07:52 20.4 °C 15.7 °C 1011.1 hPa Calm     74 % 0.0 mm 62.0 W/m2 SCT
07:57 20.4 °C 15.6 °C 1011.1 hPa Calm     74 % 0.0 mm 79.0 W/m2 SCT
08:02 20.4 °C 15.7 °C 1011.1 hPa Calm     74 % 0.0 mm 91.0 W/m2 FEW
08:07 20.6 °C 15.8 °C 1011.1 hPa Calm     74 % 0.0 mm 111.0 W/m2 CLR
08:12 20.8 °C 16.0 °C 1011.1 hPa Calm     74 % 0.0 mm 123.0 W/m2 CLR
08:17 21.1 °C 16.1 °C 1011.4 hPa NW 8.0 km/h 8.0 km/h 73 % 0.0 mm 139.0 W/m2 CLR
08:22 21.4 °C 15.9 °C 1011.4 hPa West 6.4 km/h 6.4 km/h 71 % 0.0 mm 155.0 W/m2 CLR
08:27 21.6 °C 15.7 °C 1011.4 hPa West 18.5 km/h 18.5 km/h 69 % 0.0 mm 178.0 W/m2 CLR
08:32 21.8 °C 15.8 °C 1011.7 hPa WNW 9.3 km/h 9.3 km/h 69 % 0.0 mm 192.0 W/m2 CLR
08:37 21.9 °C 15.9 °C 1011.4 hPa WNW 11.1 km/h 11.1 km/h 69 % 0.0 mm 207.0 W/m2 CLR
08:42 22.0 °C 15.8 °C 1011.4 hPa WNW 16.7 km/h 16.7 km/h 68 % 0.0 mm 223.0 W/m2 CLR
08:47 22.2 °C 15.7 °C 1011.7 hPa WNW 16.7 km/h 16.7 km/h 67 % 0.0 mm 244.0 W/m2 CLR
08:52 22.3 °C 15.8 °C 1011.7 hPa NW 13.0 km/h 13.0 km/h 67 % 0.0 mm 220.0 W/m2 CLR
08:57 22.3 °C 15.9 °C 1011.7 hPa WNW 18.5 km/h 18.5 km/h 67 % 0.0 mm 172.0 W/m2 CLR
09:02 22.4 °C 15.9 °C 1011.7 hPa NW 13.0 km/h 13.0 km/h 67 % 0.0 mm 237.0 W/m2 CLR
09:07 22.5 °C 15.8 °C 1011.7 hPa NW 18.5 km/h 18.5 km/h 66 % 0.0 mm 272.0 W/m2 CLR
09:12 22.5 °C 16.1 °C 1011.7 hPa NW 9.7 km/h 9.7 km/h 67 % 0.0 mm 253.0 W/m2 CLR
09:17 22.7 °C 16.1 °C 1012.1 hPa NNW 13.0 km/h 13.0 km/h 66 % 0.0 mm 350.0 W/m2 CLR
09:22 23.0 °C 16.3 °C 1012.1 hPa SSW 5.6 km/h 5.6 km/h 66 % 0.0 mm 396.0 W/m2 CLR
09:27 23.2 °C 16.2 °C 1012.1 hPa Calm     65 % 0.0 mm 345.0 W/m2 CLR
09:32 23.4 °C 16.2 °C 1012.1 hPa WSW 3.7 km/h   64 % 0.0 mm 383.0 W/m2 CLR
09:37 23.6 °C 16.4 °C 1012.1 hPa Calm     64 % 0.0 mm 325.0 W/m2 CLR
09:42 23.8 °C 16.4 °C 1012.1 hPa WSW 9.3 km/h 9.3 km/h 63 % 0.0 mm 512.0 W/m2 CLR
09:47 23.9 °C 16.2 °C 1012.1 hPa West 7.4 km/h 7.4 km/h 62 % 0.0 mm 410.0 W/m2 CLR
09:52 24.1 °C 16.4 °C 1012.1 hPa WNW 9.7 km/h 9.7 km/h 62 % 0.0 mm 272.0 W/m2 CLR
09:57 24.2 °C 16.4 °C 1012.1 hPa SW 7.4 km/h 7.4 km/h 62 % 0.0 mm 448.0 W/m2 CLR
10:02 24.1 °C 16.4 °C 1012.1 hPa WNW 5.6 km/h 5.6 km/h 62 % 0.0 mm 279.0 W/m2 CLR
10:07 24.1 °C 16.3 °C 1012.4 hPa West 1.9 km/h   62 % 0.0 mm 265.0 W/m2 CLR
10:12 24.2 °C 16.4 °C 1012.4 hPa Calm     62 % 0.0 mm 237.0 W/m2 CLR
10:17 24.4 °C 16.4 °C 1012.8 hPa WSW 7.4 km/h 7.4 km/h 61 % 0.0 mm 561.0 W/m2 CLR
10:22 24.6 °C 16.6 °C 1012.8 hPa Calm     61 % 0.0 mm 548.0 W/m2 CLR
10:27 25.1 °C 16.7 °C 1012.8 hPa Calm     60 % 0.0 mm 548.0 W/m2 CLR
10:32 25.3 °C 16.7 °C 1012.8 hPa Calm     59 % 0.0 mm 490.0 W/m2 CLR
10:37 25.4 °C 16.8 °C 1012.8 hPa Calm     59 % 0.0 mm 526.0 W/m2 CLR
10:42 25.7 °C 16.8 °C 1012.8 hPa Calm     58 % 0.0 mm 149.0 W/m2 CLR
10:47 25.7 °C 16.6 °C 1012.8 hPa Calm     57 % 0.0 mm 128.0 W/m2 CLR
10:52 25.6 °C 16.7 °C 1012.8 hPa South 1.9 km/h 1.9 km/h 58 % 0.0 mm 172.0 W/m2 CLR
10:57 25.5 °C 16.6 °C 1012.4 hPa Calm     58 % 0.0 mm 325.0 W/m2 CLR
11:02 25.6 °C 16.7 °C 1012.4 hPa Calm     58 % 0.0 mm 332.0 W/m2 CLR
11:07 25.7 °C 16.8 °C 1012.4 hPa North 5.6 km/h 5.6 km/h 58 % 0.0 mm 329.0 W/m2 CLR
11:12 25.9 °C 16.7 °C 1012.4 hPa North 3.7 km/h 3.7 km/h 57 % 0.0 mm 401.0 W/m2 CLR
11:13 25.9 °C 16.7 °C 1012.4 hPa NNE 3.7 km/h   57 % 0.0 mm 355.0 W/m2 CLR
11:18 25.9 °C 16.8 °C 1012.8 hPa Calm     57 % 0.0 mm 605.0 W/m2 CLR
11:23 25.9 °C 16.8 °C 1012.4 hPa Calm     57 % 0.0 mm 350.0 W/m2 CLR
11:28 25.8 °C 16.7 °C 1012.4 hPa Calm     57 % 0.0 mm 255.0 W/m2 CLR
11:33 25.8 °C 16.6 °C 1012.8 hPa NW 14.5 km/h 14.5 km/h 57 % 0.0 mm 315.0 W/m2 CLR
11:38 25.7 °C 16.8 °C 1013.1 hPa NW 7.4 km/h 7.4 km/h 58 % 0.0 mm 432.0 W/m2 CLR
11:43 25.7 °C 16.8 °C 1013.4 hPa WNW 13.0 km/h 13.0 km/h 58 % 0.0 mm 221.0 W/m2 CLR
11:48 25.4 °C 16.6 °C 1013.1 hPa NNW 5.6 km/h 5.6 km/h 58 % 0.0 mm 127.0 W/m2 CLR
11:53 25.2 °C 16.6 °C 1013.4 hPa NW 6.4 km/h 6.4 km/h 59 % 0.0 mm 91.0 W/m2 CLR
11:58 25.1 °C 16.5 °C 1012.8 hPa NNE 9.3 km/h 9.3 km/h 59 % 0.0 mm 90.0 W/m2 CLR
12:03 25.1 °C 16.5 °C 1013.1 hPa Calm     59 % 0.0 mm 77.0 W/m2 CLR
12:08 25.1 °C 16.5 °C 1013.1 hPa Calm     59 % 0.0 mm 95.0 W/m2 FEW
12:13 25.1 °C 16.5 °C 1012.4 hPa Calm     59 % 0.0 mm 176.0 W/m2 CLR
12:18 25.1 °C 16.6 °C 1012.8 hPa Calm     59 % 0.0 mm 199.0 W/m2 CLR
12:23 25.1 °C 16.5 °C 1013.1 hPa Calm     59 % 0.0 mm 104.0 W/m2 CLR
12:28 24.9 °C 16.4 °C 1012.4 hPa NNE 13.0 km/h 13.0 km/h 59 % 0.0 mm 258.0 W/m2 CLR
12:33 24.9 °C 16.3 °C 1013.1 hPa NNW 5.6 km/h   59 % 0.0 mm 139.0 W/m2 CLR
12:38 24.8 °C 16.6 °C 1012.8 hPa NNE 5.6 km/h   60 % 0.0 mm 121.0 W/m2 CLR
12:43 24.8 °C 16.5 °C 1013.1 hPa Calm     60 % 0.0 mm 155.0 W/m2 CLR
12:48 24.8 °C 16.5 °C 1013.1 hPa West 6.4 km/h 6.4 km/h 60 % 0.0 mm 114.0 W/m2 CLR
12:53 24.8 °C 16.6 °C 1012.8 hPa Calm     60 % 0.0 mm 74.0 W/m2 CLR
12:58 24.8 °C 16.6 °C 1012.4 hPa North 4.8 km/h 4.8 km/h 60 % 0.0 mm 111.0 W/m2 CLR
13:03 24.7 °C 16.7 °C 1012.4 hPa Calm     61 % 0.0 mm 114.0 W/m2 CLR
13:08 24.7 °C 16.7 °C 1012.4 hPa NNE 9.3 km/h 9.3 km/h 61 % 0.0 mm 74.0 W/m2 CLR
13:13 24.6 °C 16.6 °C 1011.7 hPa NNE 11.1 km/h 11.1 km/h 61 % 0.0 mm 135.0 W/m2 CLR
13:18 24.7 °C 16.7 °C 1011.4 hPa North 16.1 km/h 16.1 km/h 61 % 0.0 mm 243.0 W/m2 CLR
13:23 24.8 °C 16.8 °C 1012.1 hPa North 18.5 km/h 18.5 km/h 61 % 0.0 mm 132.0 W/m2 CLR
13:24 24.8 °C 16.8 °C 1012.1 hPa North 18.5 km/h 18.5 km/h 61 % 0.0 mm 123.0 W/m2 CLR
13:29 24.9 °C 16.7 °C 1013.8 hPa SW 12.9 km/h 12.9 km/h 60 % 0.0 mm 102.0 W/m2 CLR
13:34 24.9 °C 16.7 °C 1012.4 hPa Calm     60 % 0.0 mm 163.0 W/m2 CLR
13:39 25.1 °C 16.8 °C 1012.1 hPa NE 9.7 km/h 9.7 km/h 60 % 0.0 mm 464.0 W/m2 CLR
13:44 25.5 °C 16.9 °C 1012.4 hPa North 16.7 km/h 16.7 km/h 59 % 0.0 mm 385.0 W/m2 CLR
13:49 25.6 °C 16.7 °C 1012.1 hPa NW 11.1 km/h 11.1 km/h 58 % 0.0 mm 246.0 W/m2 CLR
13:54 25.5 °C 16.6 °C 1012.4 hPa NNW 6.4 km/h 6.4 km/h 58 % 0.0 mm 276.0 W/m2 CLR
13:59 25.6 °C 16.7 °C 1012.8 hPa Calm     58 % 0.0 mm 220.0 W/m2 CLR
14:04 25.5 °C 16.6 °C 1012.8 hPa NW 7.4 km/h 7.4 km/h 58 % 0.0 mm 113.0 W/m2 CLR
14:09 25.4 °C 16.8 °C 1013.4 hPa South 7.4 km/h 7.4 km/h 59 % 0.0 mm 74.0 W/m2 CLR
14:14 25.5 °C 16.9 °C 1012.4 hPa Calm     59 % 0.0 mm 197.0 W/m2 CLR
14:19 25.7 °C 16.8 °C 1011.7 hPa NNE 9.3 km/h 9.3 km/h 58 % 0.0 mm 485.0 W/m2 CLR
14:24 26.1 °C 17.2 °C 1012.4 hPa NE 8.0 km/h 8.0 km/h 58 % 0.0 mm 504.0 W/m2 CLR
14:29 26.3 °C 17.1 °C 1012.8 hPa NE 7.4 km/h 7.4 km/h 57 % 0.0 mm 287.0 W/m2 CLR
14:34 26.3 °C 17.1 °C 1012.8 hPa West 5.6 km/h 5.6 km/h 57 % 0.0 mm 227.0 W/m2 CLR
14:39 26.3 °C 16.8 °C 1012.8 hPa Calm     56 % 0.0 mm 193.0 W/m2 CLR
14:44 26.3 °C 16.8 °C 1013.1 hPa Calm     56 % 0.0 mm 162.0 W/m2 CLR
14:49 26.3 °C 17.1 °C 1013.1 hPa Calm     57 % 0.0 mm 121.0 W/m2 CLR
14:54 26.2 °C 17.0 °C 1013.4 hPa Calm     57 % 0.0 mm 102.0 W/m2 CLR
14:59 26.2 °C 17.1 °C 1013.1 hPa SE 8.0 km/h 8.0 km/h 57 % 0.0 mm 74.0 W/m2 CLR
15:04 26.1 °C 17.7 °C 1012.8 hPa ESE 13.0 km/h 13.0 km/h 60 % 0.0 mm 81.0 W/m2 FEW
15:09 25.9 °C 17.6 °C 1013.1 hPa North 13.0 km/h 13.0 km/h 60 % 0.0 mm 91.0 W/m2 FEW
15:14 25.8 °C 17.2 °C 1013.1 hPa ENE 3.7 km/h 3.7 km/h 59 % 0.0 mm 104.0 W/m2 CLR
15:19 25.8 °C 17.2 °C 1013.4 hPa Calm     59 % 0.0 mm 137.0 W/m2 CLR
15:24 25.9 °C 17.6 °C 1013.4 hPa Calm     60 % 0.0 mm 100.0 W/m2 CLR
15:29 25.9 °C 17.3 °C 1013.4 hPa Calm     59 % 0.0 mm 67.0 W/m2 CLR
15:34 25.9 °C 17.6 °C 1012.8 hPa ENE 5.6 km/h 5.6 km/h 60 % 0.0 mm 223.0 W/m2 FEW
15:39 26.1 °C 17.9 °C 1012.4 hPa ENE 9.3 km/h 9.3 km/h 61 % 0.0 mm 666.0 W/m2 CLR
15:40 26.1 °C 17.7 °C 1012.4 hPa ENE 9.3 km/h 9.3 km/h 60 % 0.0 mm 443.0 W/m2 CLR
15:45 26.4 °C 18.0 °C 1012.4 hPa ENE 8.0 km/h 8.0 km/h 60 % 0.0 mm 816.0 W/m2 CLR
15:50 26.9 °C 17.7 °C 1012.1 hPa NNE 11.1 km/h 11.1 km/h 57 % 0.0 mm 462.0 W/m2 CLR
15:55 27.2 °C 17.6 °C 1012.4 hPa NNW 14.8 km/h 14.8 km/h 56 % 0.0 mm 301.0 W/m2 CLR
16:00 27.3 °C 17.7 °C 1012.1 hPa ENE 8.0 km/h 8.0 km/h 56 % 0.0 mm 399.0 W/m2 CLR
16:05 27.5 °C 17.7 °C 1012.1 hPa NE 1.6 km/h 1.6 km/h 55 % 0.0 mm 366.0 W/m2 CLR
16:10 27.7 °C 17.8 °C 1012.4 hPa NE 9.3 km/h 9.3 km/h 55 % 0.0 mm 434.0 W/m2 CLR
16:15 28.1 °C 18.2 °C 1012.4 hPa ENE 9.3 km/h 9.3 km/h 55 % 0.0 mm 348.0 W/m2 CLR
16:20 28.2 °C 18.1 °C 1012.4 hPa ENE 9.7 km/h 9.7 km/h 54 % 0.0 mm 330.0 W/m2 CLR
16:25 28.2 °C 18.6 °C 1012.4 hPa East 5.6 km/h 5.6 km/h 56 % 0.0 mm 371.0 W/m2 CLR
16:30 28.0 °C 18.4 °C 1012.4 hPa ENE 7.4 km/h 7.4 km/h 56 % 0.0 mm 420.0 W/m2 CLR
16:35 28.0 °C 18.1 °C 1012.8 hPa ENE 7.4 km/h 7.4 km/h 55 % 0.0 mm 471.0 W/m2 CLR
16:40 28.2 °C 17.7 °C 1012.4 hPa ENE 9.3 km/h 9.3 km/h 53 % 0.0 mm 288.0 W/m2 CLR
16:45 28.3 °C 18.1 °C 1012.8 hPa NE 3.7 km/h   54 % 0.0 mm 241.0 W/m2 CLR
16:50 28.1 °C 18.2 °C 1012.4 hPa ENE 9.3 km/h 9.3 km/h 55 % 0.0 mm 135.0 W/m2 CLR
16:55 27.9 °C 18.0 °C 1012.4 hPa Calm     55 % 0.0 mm 93.0 W/m2 CLR
17:00 27.8 °C 18.2 °C 1012.1 hPa ENE 11.1 km/h 11.1 km/h 56 % 0.0 mm 90.0 W/m2 CLR
17:05 27.6 °C 18.1 °C 1012.1 hPa NNE 5.6 km/h 5.6 km/h 56 % 0.0 mm 102.0 W/m2 CLR
17:10 27.6 °C 18.0 °C 1012.4 hPa NE 3.7 km/h 3.7 km/h 56 % 0.0 mm 132.0 W/m2 CLR
17:15 27.6 °C 18.1 °C 1012.1 hPa North 8.0 km/h 8.0 km/h 56 % 0.0 mm 192.0 W/m2 CLR
17:19 27.8 °C 18.2 °C 1012.4 hPa NE 11.1 km/h 11.1 km/h 56 % 0.0 mm 251.0 W/m2 CLR
17:20 27.8 °C 18.2 °C 1012.4 hPa NE 11.1 km/h 11.1 km/h 56 % 0.0 mm 251.0 W/m2 CLR
17:25 27.8 °C 18.2 °C 1012.4 hPa NE 11.1 km/h 11.1 km/h 56 % 0.0 mm 251.0 W/m2 CLR
17:30 27.8 °C 18.2 °C 1012.1 hPa NE 13.0 km/h 13.0 km/h 56 % 0.0 mm 251.0 W/m2 CLR
17:35 28.0 °C 18.1 °C 1011.7 hPa Calm   0.2 km/h 55 % 0.0 mm 294.0 W/m2 CLR
17:40 28.1 °C 18.2 °C 1011.7 hPa Calm     55 % 0.0 mm 373.0 W/m2 CLR
17:45 28.4 °C 18.2 °C 1011.4 hPa Calm     54 % 0.0 mm 329.0 W/m2 CLR
17:50 28.7 °C 18.5 °C 1011.4 hPa Calm     54 % 0.0 mm 294.0 W/m2 CLR
17:55 29.0 °C 18.4 °C 1011.4 hPa Calm     53 % 0.0 mm 250.0 W/m2 CLR
18:00 29.2 °C 18.3 °C 1011.1 hPa Calm     52 % 0.0 mm 192.0 W/m2 CLR
18:05 29.2 °C 18.6 °C 1011.1 hPa Calm     53 % 0.0 mm 190.0 W/m2 CLR
18:10 29.3 °C 18.7 °C 1011.1 hPa Calm     53 % 0.0 mm 338.0 W/m2 CLR
18:15 29.7 °C 19.1 °C 1011.1 hPa Calm     53 % 0.0 mm 373.0 W/m2 CLR
18:16 29.7 °C 18.8 °C 1011.1 hPa Calm     52 % 0.0 mm 422.0 W/m2 CLR
18:21 30.0 °C 19.4 °C 1011.1 hPa Calm   0.2 km/h 53 % 0.0 mm 357.0 W/m2 CLR
18:26 30.1 °C 19.8 °C 1010.7 hPa East 8.0 km/h 8.0 km/h 54 % 0.0 mm 339.0 W/m2 CLR
18:31 30.1 °C 19.8 °C 1011.1 hPa East 5.6 km/h 5.6 km/h 54 % 0.0 mm 221.0 W/m2 CLR
18:36 30.1 °C 19.7 °C 1010.7 hPa ENE 5.6 km/h   54 % 0.0 mm 341.0 W/m2 CLR
18:41 30.2 °C 19.6 °C 1011.1 hPa Calm     53 % 0.0 mm 471.0 W/m2 CLR
18:46 30.6 °C 19.6 °C 1011.1 hPa Calm     52 % 0.0 mm 346.0 W/m2 CLR
18:51 31.0 °C 19.1 °C 1011.1 hPa Calm     49 % 0.0 mm 452.0 W/m2 CLR
18:56 31.3 °C 18.9 °C 1011.1 hPa Calm     48 % 0.0 mm 394.0 W/m2 CLR
19:01 31.4 °C 18.8 °C 1011.1 hPa Calm     47 % 0.0 mm 334.0 W/m2 CLR
19:06 31.6 °C 18.6 °C 1011.1 hPa Calm   0.6 km/h 46 % 0.0 mm 151.0 W/m2 CLR
19:11 31.6 °C 18.9 °C 1011.1 hPa Calm   0.2 km/h 47 % 0.0 mm 128.0 W/m2 CLR
19:16 31.5 °C 20.1 °C 1011.1 hPa ESE 9.3 km/h 9.3 km/h 51 % 0.0 mm 311.0 W/m2 CLR
19:21 31.4 °C 20.7 °C 1010.7 hPa ESE 8.0 km/h 8.0 km/h 53 % 0.0 mm 278.0 W/m2 CLR
19:26 30.9 °C 21.2 °C 1010.7 hPa ESE 16.7 km/h 16.7 km/h 56 % 0.0 mm 165.0 W/m2 CLR
19:31 30.7 °C 21.2 °C 1010.7 hPa ESE 11.3 km/h 11.3 km/h 57 % 0.0 mm 248.0 W/m2 CLR
19:36 30.8 °C 21.0 °C 1010.7 hPa SE 13.0 km/h 13.0 km/h 56 % 0.0 mm 279.0 W/m2 CLR
19:41 30.9 °C 20.8 °C 1010.7 hPa ESE 18.5 km/h 18.5 km/h 55 % 0.0 mm 243.0 W/m2 CLR
19:46 31.0 °C 21.2 °C 1011.1 hPa SSE 18.5 km/h 18.5 km/h 56 % 0.0 mm 211.0 W/m2 CLR
19:51 31.1 °C 20.7 °C 1011.1 hPa SSE 16.7 km/h 16.7 km/h 54 % 0.0 mm 197.0 W/m2 CLR
19:56 31.3 °C 20.3 °C 1011.1 hPa SE 18.5 km/h 18.5 km/h 52 % 0.0 mm 188.0 W/m2 CLR
20:01 31.6 °C 19.6 °C 1011.1 hPa SSE 5.6 km/h 6.1 km/h 49 % 0.0 mm 155.0 W/m2 CLR
20:06 32.0 °C 19.3 °C 1011.1 hPa SSE 13.0 km/h 13.0 km/h 47 % 0.0 mm 142.0 W/m2 CLR
20:11 32.4 °C 17.1 °C 1011.1 hPa SSE 24.1 km/h 24.1 km/h 40 % 0.0 mm 113.0 W/m2 CLR
20:16 32.7 °C 16.1 °C 1011.1 hPa SSE 20.9 km/h 20.9 km/h 37 % 0.0 mm 91.0 W/m2 CLR
20:22 32.8 °C 16.2 °C 1011.1 hPa South 27.8 km/h 27.8 km/h 37 % 0.0 mm 77.0 W/m2 FEW
20:27 32.6 °C 16.4 °C 1011.4 hPa South 27.8 km/h 27.8 km/h 38 % 0.0 mm 67.0 W/m2 FEW
20:32 32.3 °C 16.6 °C 1011.4 hPa South 22.2 km/h 22.2 km/h 39 % 0.0 mm 58.0 W/m2 SCT
20:37 32.0 °C 16.7 °C 1011.7 hPa South 18.5 km/h 18.5 km/h 40 % 0.0 mm 49.0 W/m2 SCT
20:42 31.8 °C 16.9 °C 1011.7 hPa South 25.9 km/h 25.9 km/h 41 % 0.0 mm 42.0 W/m2 BKN
20:47 31.6 °C 16.7 °C 1011.7 hPa South 20.4 km/h 20.4 km/h 41 % 0.0 mm 33.0 W/m2 BKN
20:52 31.3 °C 16.9 °C 1011.7 hPa South 11.1 km/h 11.1 km/h 42 % 0.0 mm 26.0 W/m2 BKN
20:57 31.1 °C 17.0 °C 1012.1 hPa South 13.0 km/h 13.0 km/h 43 % 0.0 mm 21.0 W/m2 BKN
21:02 30.8 °C 17.2 °C 1012.1 hPa SE 11.1 km/h 11.1 km/h 44 % 0.0 mm 18.0 W/m2 BKN
21:07 30.6 °C 17.3 °C 1012.1 hPa South 5.6 km/h 5.6 km/h 45 % 0.0 mm 12.0 W/m2 BKN
21:12 30.4 °C 17.5 °C 1012.4 hPa SSW 5.6 km/h 5.6 km/h 46 % 0.0 mm 5.0 W/m2 BKN
21:17 30.3 °C 17.4 °C 1012.8 hPa Calm     46 % 0.0 mm 0.0 W/m2 OVC
21:20 30.2 °C 17.3 °C 1012.8 hPa Calm   0.3 km/h 46 % 0.0 mm 0.0 W/m2 OVC
21:22 30.1 °C 17.2 °C 1012.8 hPa Calm     46 % 0.0 mm 0.0 W/m2 OVC
21:27 30.0 °C 17.4 °C 1012.8 hPa Calm     47 % 0.0 mm 0.0 W/m2 CLR
21:32 29.8 °C 16.9 °C 1013.1 hPa South 6.4 km/h 6.4 km/h 46 % 0.0 mm 0.0 W/m2 CLR
21:37 29.7 °C 16.9 °C 1013.4 hPa SE 5.6 km/h 5.6 km/h 46 % 0.0 mm 0.0 W/m2 CLR
21:42 29.6 °C 16.8 °C 1013.4 hPa Calm     46 % 0.0 mm 0.0 W/m2 CLR
21:47 29.6 °C 16.7 °C 1013.4 hPa SSW 8.0 km/h 8.0 km/h 46 % 0.0 mm 0.0 W/m2 CLR
21:52 29.6 °C 16.4 °C 1013.4 hPa Calm     45 % 0.0 mm 0.0 W/m2 CLR
21:57 29.5 °C 16.3 °C 1013.4 hPa South 11.1 km/h 11.1 km/h 45 % 0.0 mm 0.0 W/m2 CLR
22:02 29.4 °C 16.2 °C 1013.8 hPa South 13.0 km/h 13.0 km/h 45 % 0.0 mm 0.0 W/m2 CLR
22:07 29.3 °C 16.4 °C 1013.8 hPa Calm     46 % 0.0 mm 0.0 W/m2 CLR
22:09 29.2 °C 16.4 °C 1013.8 hPa South 9.3 km/h 9.3 km/h 46 % 0.0 mm 0.0 W/m2 CLR
22:10 29.2 °C 16.4 °C 1013.8 hPa South 9.3 km/h 9.3 km/h 46 % 0.0 mm 0.0 W/m2 CLR
22:15 29.1 °C 16.3 °C 1013.8 hPa Calm     46 % 0.0 mm 0.0 W/m2 CLR
22:18 29.1 °C 16.6 °C 1013.8 hPa South 13.0 km/h 13.0 km/h 47 % 0.0 mm 0.0 W/m2 CLR
22:20 29.1 °C 16.6 °C 1014.1 hPa South 16.7 km/h 16.7 km/h 47 % 0.0 mm 0.0 W/m2 CLR
22:25 29.1 °C 16.6 °C 1014.1 hPa South 25.7 km/h 25.7 km/h 47 % 0.0 mm 0.0 W/m2 CLR
22:30 29.1 °C 16.9 °C 1014.1 hPa SSW 24.1 km/h 24.1 km/h 48 % 0.0 mm 0.0 W/m2 CLR
22:35 29.1 °C 17.0 °C 1014.4 hPa SSW 14.8 km/h 14.8 km/h 48 % 0.0 mm 0.0 W/m2 CLR
22:40 29.1 °C 16.9 °C 1014.4 hPa SSW 18.5 km/h 18.5 km/h 48 % 0.0 mm 0.0 W/m2 CLR
22:45 29.0 °C 16.9 °C 1014.4 hPa South 16.7 km/h 16.7 km/h 48 % 0.0 mm 0.0 W/m2 CLR
22:50 29.0 °C 16.6 °C 1014.4 hPa SSW 8.0 km/h 8.0 km/h 47 % 0.0 mm 0.0 W/m2 CLR
22:55 29.0 °C 16.6 °C 1014.4 hPa South 16.7 km/h 16.7 km/h 47 % 0.0 mm 0.0 W/m2 CLR
23:00 29.0 °C 16.2 °C 1014.4 hPa South 4.8 km/h 4.8 km/h 46 % 0.0 mm 0.0 W/m2 CLR
23:05 29.1 °C 15.9 °C 1014.4 hPa Calm     45 % 0.0 mm 0.0 W/m2 CLR
23:10 29.1 °C 15.9 °C 1014.8 hPa Calm     45 % 0.0 mm 0.0 W/m2 CLR
23:15 29.0 °C 16.2 °C 1014.8 hPa Calm     46 % 0.0 mm 0.0 W/m2 CLR
23:20 28.8 °C 16.1 °C 1015.1 hPa Calm     46 % 0.0 mm 0.0 W/m2 CLR
23:25 28.4 °C 16.4 °C 1015.1 hPa Calm     48 % 0.0 mm 0.0 W/m2 CLR
23:30 27.9 °C 16.9 °C 1015.1 hPa Calm     51 % 0.0 mm 0.0 W/m2 CLR
23:35 27.4 °C 17.0 °C 1015.1 hPa Calm     53 % 0.0 mm 0.0 W/m2 CLR
23:40 27.2 °C 16.8 °C 1015.1 hPa ESE 5.6 km/h 5.6 km/h 53 % 0.0 mm 0.0 W/m2 CLR
23:45 27.1 °C 17.0 °C 1015.5 hPa Calm     54 % 0.0 mm 0.0 W/m2 CLR
23:50 27.0 °C 16.6 °C 1015.5 hPa South 5.6 km/h 5.6 km/h 53 % 0.0 mm 0.0 W/m2 CLR
23:55 27.4 °C 15.8 °C 1015.5 hPa SSE 16.7 km/h 16.7 km/h 49 % 0.0 mm 0.0 W/m2 CLR
Lo Temps de Massalio
Compliments of Weather Underground - 1.25 mb